Time;durP1;ratioP1;P1;durP2;ratioP2;P2;SDS_P1;SDS_P2;PMS_P1;PMS_P2;Temp;Humidity;BMP_temperature;BMP_pressure;BME280_temperature;BME280_humidity;BME280_pressure;Samples;Min_cycle;Max_cycle;Signal;HPM_P1;HPM_P2
2021/06/25 00:00:00;;;;;;;21.52;6.53;;;26.60;75.10;;;;;;5073315;28;20370;-82
2021/06/25 00:02:26;;;;;;;19.20;6.32;;;26.60;75.00;;;;;;5073049;28;20082;-82
2021/06/25 00:04:52;;;;;;;22.05;5.70;;;26.60;75.00;;;;;;5075962;28;20031;-84
2021/06/25 00:07:18;;;;;;;18.83;5.40;;;26.60;74.50;;;;;;5076841;28;20021;-85
2021/06/25 00:09:44;;;;;;;18.85;5.53;;;26.60;74.20;;;;;;5084239;28;20025;-85
2021/06/25 00:12:10;;;;;;;18.40;6.57;;;26.60;74.20;;;;;;5087628;28;20036;-83
2021/06/25 00:14:36;;;;;;;21.30;6.07;;;26.60;74.40;;;;;;5081250;28;20025;-83
2021/06/25 00:17:02;;;;;;;16.60;5.85;;;26.50;74.60;;;;;;5076747;28;20463;-83
2021/06/25 00:19:29;;;;;;;16.98;5.82;;;26.50;74.70;;;;;;5076963;28;20017;-83
2021/06/25 00:21:56;;;;;;;27.38;6.68;;;26.60;74.70;;;;;;5076393;28;20161;-81
2021/06/25 00:24:22;;;;;;;24.90;5.95;;;26.50;74.60;;;;;;5058656;28;20024;-82
2021/06/25 00:26:50;;;;;;;21.65;6.15;;;26.50;74.60;;;;;;5076494;28;20036;-82
2021/06/25 00:29:16;;;;;;;17.70;6.07;;;26.50;74.50;;;;;;5058125;28;20021;-81
2021/06/25 00:31:42;;;;;;;18.70;5.82;;;26.50;74.30;;;;;;5075921;28;20129;-81
2021/06/25 00:34:07;;;;;;;18.95;5.88;;;26.50;74.10;;;;;;5075728;28;20024;-82
2021/06/25 00:36:33;;;;;;;21.15;6.57;;;26.40;73.90;;;;;;5075875;28;20078;-81
2021/06/25 00:38:59;;;;;;;18.92;6.63;;;26.40;74.00;;;;;;5075895;28;20139;-82
2021/06/25 00:41:25;;;;;;;17.40;6.20;;;26.40;73.90;;;;;;5075881;28;20051;-82
2021/06/25 00:43:50;;;;;;;20.35;5.75;;;26.40;74.00;;;;;;5074544;28;20035;-82
2021/06/25 00:46:16;;;;;;;16.98;5.18;;;26.40;73.90;;;;;;5076085;28;20040;-82
2021/06/25 00:48:42;;;;;;;16.23;5.53;;;26.30;73.70;;;;;;5058091;28;20023;-83
2021/06/25 00:51:08;;;;;;;16.23;6.25;;;26.30;73.60;;;;;;5076020;28;20016;-83
2021/06/25 00:53:33;;;;;;;21.27;6.32;;;26.30;73.80;;;;;;5076154;28;20380;-83
2021/06/25 00:56:00;;;;;;;22.23;6.82;;;26.30;73.90;;;;;;5075574;28;20070;-83
2021/06/25 00:58:26;;;;;;;13.65;5.75;;;26.20;74.00;;;;;;5076006;28;20428;-83
2021/06/25 01:00:51;;;;;;;22.85;5.63;;;26.20;73.70;;;;;;5076433;28;20032;-83
2021/06/25 01:03:17;;;;;;;20.73;5.95;;;26.20;73.80;;;;;;5077983;28;20032;-83
2021/06/25 01:05:44;;;;;;;16.52;6.25;;;26.20;73.80;;;;;;5075961;28;20040;-84
2021/06/25 01:08:11;;;;;;;20.48;6.50;;;26.20;74.10;;;;;;5058100;28;20489;-83
2021/06/25 01:10:38;;;;;;;15.75;6.30;;;26.10;74.00;;;;;;5074285;28;20021;-81
2021/06/25 01:13:08;;;;;;;23.75;6.53;;;26.10;74.40;;;;;;5074954;28;20074;-84
2021/06/25 01:15:36;;;;;;;25.60;9.27;;;26.10;74.90;;;;;;5075003;28;20055;-83
2021/06/25 01:18:02;;;;;;;27.40;12.20;;;26.10;75.10;;;;;;5075727;28;20459;-83
2021/06/25 01:20:30;;;;;;;25.23;9.48;;;26.10;75.40;;;;;;5057898;28;20117;-83
2021/06/25 01:22:57;;;;;;;23.17;9.77;;;26.00;75.70;;;;;;5075899;28;20134;-83
2021/06/25 01:25:31;;;;;;;16.80;7.88;;;26.00;75.90;;;;;;5075705;28;20017;-83
2021/06/25 01:28:04;;;;;;;18.00;8.00;;;26.00;76.10;;;;;;5075973;28;20095;-83
2021/06/25 01:30:36;;;;;;;20.10;6.95;;;25.90;76.30;;;;;;5075427;28;20422;-83
2021/06/25 01:33:04;;;;;;;26.10;7.72;;;25.90;76.60;;;;;;5076034;28;20021;-83
2021/06/25 01:35:30;;;;;;;21.58;7.43;;;25.80;76.90;;;;;;5075336;28;20028;-83
2021/06/25 01:37:55;;;;;;;19.75;7.70;;;25.80;77.10;;;;;;5075297;28;20032;-83
2021/06/25 01:40:22;;;;;;;20.05;7.93;;;25.80;77.30;;;;;;5075043;28;20123;-83
2021/06/25 01:43:28;;;;;;;20.83;8.00;;;25.80;77.30;;;;;;5074816;28;20024;-85
2021/06/25 01:45:57;;;;;;;18.40;7.80;;;25.80;77.40;;;;;;5046827;28;20040;-87
2021/06/25 01:48:23;;;;;;;14.70;7.95;;;25.80;77.20;;;;;;5058229;28;20016;-82
2021/06/25 01:50:49;;;;;;;22.58;7.88;;;25.80;76.90;;;;;;5075311;28;20470;-83
2021/06/25 01:53:17;;;;;;;16.05;7.80;;;25.80;76.90;;;;;;5074873;28;20060;-82
2021/06/25 01:55:45;;;;;;;32.33;11.32;;;25.80;77.10;;;;;;5075516;28;20056;-83
2021/06/25 01:58:13;;;;;;;39.85;16.30;;;25.80;76.90;;;;;;5074988;28;20024;-82
2021/06/25 02:01:00;;;;;;;38.05;15.05;;;25.70;76.70;;;;;;5075125;28;20036;-82
2021/06/25 02:03:26;;;;;;;35.70;11.55;;;25.80;76.60;;;;;;5061115;28;20476;-81
2021/06/25 02:05:52;;;;;;;26.55;10.85;;;25.80;76.50;;;;;;5075965;28;20048;-83
2021/06/25 02:08:18;;;;;;;31.20;9.93;;;25.80;76.50;;;;;;5074676;28;20475;-82
2021/06/25 02:10:43;;;;;;;20.73;8.23;;;25.80;76.40;;;;;;5074883;28;20039;-84
2021/06/25 02:13:09;;;;;;;19.02;8.35;;;25.90;76.50;;;;;;5074520;28;20028;-82
2021/06/25 02:15:35;;;;;;;17.55;8.63;;;25.90;76.50;;;;;;5074640;28;20401;-82
2021/06/25 02:18:01;;;;;;;19.88;9.00;;;25.80;76.40;;;;;;5056680;28;20027;-83
2021/06/25 02:20:27;;;;;;;25.40;9.18;;;25.90;76.30;;;;;;5074782;28;20020;-83
2021/06/25 02:22:53;;;;;;;20.65;9.10;;;25.90;76.20;;;;;;5074980;28;20497;-83
2021/06/25 02:25:18;;;;;;;18.27;8.70;;;25.90;76.10;;;;;;5074950;28;20016;-83
2021/06/25 02:27:44;;;;;;;19.17;7.82;;;26.00;76.00;;;;;;5074122;28;20017;-83
2021/06/25 02:30:16;;;;;;;16.45;7.38;;;26.10;76.00;;;;;;5074412;28;20486;-83
2021/06/25 02:32:42;;;;;;;;;;;26.30;75.50;;;;;;5074876;28;20021;-83
2021/06/25 02:35:08;;;;;;;18.35;8.18;;;26.40;75.00;;;;;;5074115;28;20350;-83
2021/06/25 02:37:34;;;;;;;20.10;10.02;;;26.50;74.70;;;;;;5074283;28;20021;-83
2021/06/25 02:40:00;;;;;;;21.73;9.68;;;26.50;74.40;;;;;;5056477;28;20032;-83
2021/06/25 02:42:26;;;;;;;25.00;8.20;;;26.50;74.20;;;;;;5073574;28;20028;-83
2021/06/25 02:44:52;;;;;;;21.60;8.02;;;26.50;74.10;;;;;;5073668;28;20026;-81
2021/06/25 02:47:17;;;;;;;17.95;8.30;;;26.50;74.00;;;;;;5073316;28;20199;-81
2021/06/25 02:49:43;;;;;;;18.20;7.95;;;26.40;74.00;;;;;;5073259;28;20028;-81
2021/06/25 02:52:09;;;;;;;26.65;9.32;;;26.40;74.10;;;;;;5073157;28;20158;-81
2021/06/25 02:54:36;;;;;;;35.65;12.98;;;26.40;74.20;;;;;;5072703;28;20097;-81
2021/06/25 02:57:02;;;;;;;34.85;11.98;;;26.40;74.20;;;;;;5072995;28;20020;-81
2021/06/25 02:59:28;;;;;;;31.08;10.30;;;26.40;74.20;;;;;;5072927;28;20017;-81
2021/06/25 03:01:54;;;;;;;28.73;9.43;;;26.40;74.20;;;;;;5072983;28;20025;-83
2021/06/25 03:04:20;;;;;;;22.80;10.40;;;26.50;74.20;;;;;;5072960;28;20073;-83
2021/06/25 03:06:46;;;;;;;29.75;10.18;;;26.70;74.10;;;;;;5073543;28;20391;-83
2021/06/25 03:09:12;;;;;;;26.02;11.57;;;26.80;73.70;;;;;;5074011;28;20028;-84
2021/06/25 03:11:37;;;;;;;31.08;13.27;;;27.10;73.30;;;;;;5073491;28;20023;-83
2021/06/25 03:14:03;;;;;;;39.58;13.50;;;27.50;72.70;;;;;;5073538;28;20382;-83
2021/06/25 03:16:29;;;;;;;22.77;9.57;;;28.00;71.70;;;;;;5073392;28;20037;-83
2021/06/25 03:18:54;;;;;;;22.88;8.02;;;28.40;70.70;;;;;;5073759;28;20029;-83
2021/06/25 03:21:20;;;;;;;21.67;7.25;;;29.00;69.10;;;;;;5073616;28;20086;-83
2021/06/25 03:23:46;;;;;;;21.33;7.68;;;29.60;67.70;;;;;;5073600;28;20040;-84
2021/06/25 03:26:12;;;;;;;17.63;6.75;;;30.40;66.20;;;;;;5073703;28;20078;-84
2021/06/25 03:28:39;;;;;;;23.20;7.40;;;31.10;64.50;;;;;;5074879;28;20024;-84
2021/06/25 03:31:05;;;;;;;23.05;8.50;;;31.60;62.80;;;;;;5074067;28;20017;-84
2021/06/25 03:33:31;;;;;;;18.48;7.40;;;32.10;61.50;;;;;;5074277;28;20036;-84
2021/06/25 03:35:57;;;;;;;19.83;8.48;;;32.60;60.50;;;;;;5074351;28;20035;-84
2021/06/25 03:38:22;;;;;;;22.92;10.13;;;32.70;59.50;;;;;;5073658;28;20048;-84
2021/06/25 03:40:48;;;;;;;28.50;10.85;;;32.50;58.90;;;;;;5077841;28;20099;-84
2021/06/25 03:43:14;;;;;;;27.48;10.18;;;32.30;58.90;;;;;;5077484;28;20021;-84
2021/06/25 03:45:40;;;;;;;29.92;10.82;;;31.90;59.30;;;;;;5059203;28;20027;-82
2021/06/25 03:48:06;;;;;;;32.55;10.90;;;31.50;59.80;;;;;;5059653;28;20029;-82
2021/06/25 03:50:32;;;;;;;26.30;10.32;;;31.20;60.50;;;;;;5076952;28;20103;-82
2021/06/25 03:52:58;;;;;;;24.55;11.55;;;30.90;61.10;;;;;;5077302;28;20435;-82
2021/06/25 03:55:24;;;;;;;33.28;12.60;;;30.60;61.60;;;;;;5076205;28;20125;-82
2021/06/25 03:57:50;;;;;;;31.30;12.52;;;30.40;62.10;;;;;;5060367;28;20060;-82
2021/06/25 04:00:18;;;;;;;25.83;10.82;;;30.10;62.50;;;;;;5076471;28;20028;-82
2021/06/25 04:02:45;;;;;;;24.50;10.90;;;30.00;63.00;;;;;;5075841;28;20039;-82
2021/06/25 04:05:11;;;;;;;21.38;8.52;;;29.90;63.50;;;;;;5075040;28;20033;-82
2021/06/25 04:07:38;;;;;;;20.40;8.25;;;29.80;63.80;;;;;;5076258;28;20051;-83
2021/06/25 04:10:07;;;;;;;20.42;8.25;;;29.70;64.00;;;;;;5076313;28;20020;-82
2021/06/25 04:12:33;;;;;;;27.92;8.77;;;29.60;64.10;;;;;;5076689;28;20479;-84
2021/06/25 04:14:59;;;;;;;23.77;10.90;;;29.50;64.20;;;;;;5058643;28;20054;-84
2021/06/25 04:17:25;;;;;;;31.92;10.13;;;29.50;64.30;;;;;;5058449;28;20047;-84
2021/06/25 04:19:51;;;;;;;20.00;8.23;;;29.50;64.40;;;;;;5076379;28;20029;-82
2021/06/25 04:22:19;;;;;;;20.05;7.65;;;29.40;64.40;;;;;;5076235;28;20036;-85
2021/06/25 04:24:45;;;;;;;20.92;6.90;;;29.40;64.20;;;;;;5075924;28;20016;-83
2021/06/25 04:27:10;;;;;;;21.15;7.55;;;29.40;63.70;;;;;;5076217;28;20024;-83
2021/06/25 04:29:37;;;;;;;20.05;7.20;;;29.30;63.50;;;;;;5076274;28;20035;-83
2021/06/25 04:32:03;;;;;;;30.80;6.30;;;29.30;63.30;;;;;;5076418;28;20016;-82
2021/06/25 04:34:29;;;;;;;18.83;6.20;;;29.40;63.20;;;;;;5076102;28;20052;-84
2021/06/25 04:36:54;;;;;;;21.05;6.97;;;29.40;63.80;;;;;;5076193;28;20047;-83
2021/06/25 04:39:20;;;;;;;21.77;6.50;;;29.40;63.00;;;;;;5076425;28;20086;-84
2021/06/25 04:41:46;;;;;;;23.88;6.13;;;29.40;62.90;;;;;;5080428;28;20025;-84
2021/06/25 04:44:12;;;;;;;39.15;7.47;;;29.40;62.80;;;;;;5087516;28;20044;-84
2021/06/25 04:46:39;;;;;;;16.83;6.20;;;29.50;62.80;;;;;;5083873;28;20035;-83
2021/06/25 04:49:05;;;;;;;21.77;7.18;;;29.60;62.70;;;;;;5075921;28;20360;-83
2021/06/25 04:51:31;;;;;;;13.68;6.90;;;29.70;62.60;;;;;;5075830;28;20020;-83
2021/06/25 04:53:57;;;;;;;15.70;5.68;;;29.80;62.40;;;;;;5075562;28;20048;-84
2021/06/25 04:56:23;;;;;;;14.60;6.22;;;29.90;62.20;;;;;;5076301;28;20108;-84
2021/06/25 04:58:49;;;;;;;18.85;6.93;;;30.00;62.10;;;;;;5075605;28;20099;-84
2021/06/25 05:01:14;;;;;;;16.13;6.70;;;30.20;62.00;;;;;;5076112;28;20029;-83
2021/06/25 05:03:41;;;;;;;20.55;6.40;;;30.40;61.70;;;;;;5075640;28;20469;-83
2021/06/25 05:06:07;;;;;;;24.55;6.60;;;30.60;61.40;;;;;;5056995;28;20391;-82
2021/06/25 05:08:33;;;;;;;29.45;10.43;;;30.80;61.10;;;;;;5073964;28;20024;-83
2021/06/25 05:10:59;;;;;;;29.92;12.88;;;31.00;60.90;;;;;;5074494;28;20035;-82
2021/06/25 05:13:25;;;;;;;31.75;13.00;;;31.30;60.70;;;;;;5074274;28;20100;-82
2021/06/25 05:15:51;;;;;;;26.77;10.95;;;31.60;60.30;;;;;;5074120;28;20024;-82
2021/06/25 05:18:19;;;;;;;22.73;8.30;;;31.90;59.90;;;;;;5073944;28;20028;-82
2021/06/25 05:20:47;;;;;;;23.50;7.72;;;32.10;59.50;;;;;;5073607;28;20033;-82
2021/06/25 05:23:14;;;;;;;18.25;8.25;;;32.30;59.00;;;;;;5055461;28;20112;-82
2021/06/25 05:25:41;;;;;;;21.98;7.57;;;32.60;58.60;;;;;;5055739;28;20046;-84
2021/06/25 05:28:07;;;;;;;24.25;7.18;;;32.90;58.90;;;;;;5074865;28;20497;-83
2021/06/25 05:30:34;;;;;;;23.42;6.97;;;33.50;58.00;;;;;;5074921;28;20174;-83
2021/06/25 05:33:00;;;;;;;16.70;6.88;;;34.70;57.10;;;;;;5074704;28;20036;-84
2021/06/25 05:35:32;;;;;;;22.50;6.88;;;36.20;55.40;;;;;;5073286;28;20150;-80
2021/06/25 05:38:10;;;;;;;23.38;7.85;;;37.70;53.10;;;;;;5072895;28;20031;-80
2021/06/25 05:40:37;;;;;;;18.42;6.32;;;39.20;50.60;;;;;;5054217;28;20364;-80
2021/06/25 05:43:06;;;;;;;19.83;6.28;;;40.30;49.10;;;;;;5072195;28;20028;-82
2021/06/25 05:45:33;;;;;;;20.80;6.77;;;41.30;47.20;;;;;;5071760;28;20100;-82
2021/06/25 05:47:59;;;;;;;15.98;6.50;;;42.10;46.20;;;;;;5072683;28;20495;-80
2021/06/25 05:50:26;;;;;;;17.25;6.68;;;43.00;44.80;;;;;;5073219;28;20105;-84
2021/06/25 05:52:51;;;;;;;21.38;6.53;;;43.90;43.50;;;;;;5054439;28;20043;-83
2021/06/25 05:55:18;;;;;;;14.27;6.40;;;44.70;42.50;;;;;;5055505;28;20024;-83
2021/06/25 05:57:45;;;;;;;13.20;6.18;;;45.40;41.30;;;;;;5073486;28;20031;-83
2021/06/25 06:00:12;;;;;;;15.57;6.07;;;46.10;39.70;;;;;;5073138;28;20524;-83
2021/06/25 06:02:38;;;;;;;15.27;6.05;;;46.40;39.20;;;;;;5072345;28;20035;-82
2021/06/25 06:05:07;;;;;;;13.52;6.28;;;46.80;38.70;;;;;;5074431;28;20024;-85
2021/06/25 06:07:33;;;;;;;8.75;5.53;;;47.20;37.90;;;;;;5073890;28;20025;-85
2021/06/25 06:09:58;;;;;;;17.60;6.18;;;47.20;37.20;;;;;;5088404;28;20036;-83
2021/06/25 06:12:24;;;;;;;8.02;5.50;;;47.50;37.10;;;;;;5073502;28;20029;-83
2021/06/25 06:14:51;;;;;;;19.17;6.53;;;47.70;36.70;;;;;;5072587;28;20463;-83
2021/06/25 06:17:19;;;;;;;14.00;5.47;;;48.00;36.80;;;;;;5072300;28;20039;-83
2021/06/25 06:19:47;;;;;;;19.50;6.28;;;48.40;36.40;;;;;;5072383;28;20089;-83
2021/06/25 06:35:40;;;;;;;12.23;5.67;;;49.20;34.80;;;;;;5072766;28;20108;-83
2021/06/25 06:38:06;;;;;;;7.82;5.80;;;49.00;35.00;;;;;;5073417;28;20384;-83
2021/06/25 06:40:42;;;;;;;13.77;7.18;;;49.20;34.80;;;;;;5072514;28;20463;-85
2021/06/25 06:43:08;;;;;;;14.52;5.97;;;48.90;34.90;;;;;;5072554;28;20031;-82
2021/06/25 06:45:35;;;;;;;18.15;6.22;;;48.70;35.40;;;;;;5071815;28;20112;-83
2021/06/25 06:48:01;;;;;;;12.27;6.63;;;48.60;35.60;;;;;;5070424;28;20103;-82
2021/06/25 06:50:27;;;;;;;14.07;5.97;;;48.80;35.40;;;;;;5071675;28;20423;-82
2021/06/25 06:52:52;;;;;;;15.68;6.10;;;48.60;34.80;;;;;;5071720;28;20115;-83
2021/06/25 06:55:20;;;;;;;10.32;7.18;;;47.80;35.10;;;;;;5070851;28;20052;-80
2021/06/25 06:57:46;;;;;;;15.40;6.28;;;47.00;35.60;;;;;;5072375;28;20070;-86
2021/06/25 07:00:13;;;;;;;16.08;6.60;;;46.50;36.50;;;;;;5072536;28;20020;-85
2021/06/25 07:02:40;;;;;;;21.95;6.35;;;46.50;36.70;;;;;;5050369;28;20029;-84
2021/06/25 07:05:07;;;;;;;13.00;6.53;;;46.70;36.80;;;;;;5072158;28;20066;-84
2021/06/25 07:07:33;;;;;;;13.73;6.90;;;46.80;36.60;;;;;;5072698;28;20016;-85
2021/06/25 07:09:59;;;;;;;12.13;6.45;;;46.70;36.80;;;;;;5074062;28;20020;-86
2021/06/25 07:12:25;;;;;;;14.63;6.80;;;46.50;36.90;;;;;;5055832;28;20099;-89
2021/06/25 07:14:51;;;;;;;15.18;6.70;;;46.40;36.90;;;;;;5072973;28;20049;-88
2021/06/25 07:17:17;;;;;;;13.30;6.60;;;46.50;37.20;;;;;;5055822;28;20115;-89
2021/06/25 07:19:42;;;;;;;13.45;6.38;;;46.70;37.20;;;;;;5075102;28;20425;-88
2021/06/25 07:22:08;;;;;;;13.68;6.38;;;47.10;36.70;;;;;;5073773;28;20027;-90
2021/06/25 07:24:34;;;;;;;17.67;6.70;;;47.20;36.60;;;;;;5088822;28;20119;-90
2021/06/25 07:26:59;;;;;;;21.80;7.05;;;47.30;36.40;;;;;;5072971;28;20024;-91
2021/06/25 07:29:25;;;;;;;12.65;6.50;;;47.40;36.70;;;;;;5055822;28;20078;-89
2021/06/25 07:31:51;;;;;;;11.90;6.88;;;47.50;36.30;;;;;;5079563;28;20048;-90
2021/06/25 07:34:17;;;;;;;16.92;7.10;;;47.20;36.30;;;;;;5070823;28;20028;-89
2021/06/25 07:36:43;;;;;;;10.30;6.30;;;47.30;36.00;;;;;;5075686;28;20054;-88
2021/06/25 07:39:09;;;;;;;18.02;5.97;;;47.00;36.30;;;;;;5085224;28;20036;-89
2021/06/25 07:41:36;;;;;;;19.35;6.93;;;47.00;36.50;;;;;;5073439;28;20024;-89
2021/06/25 07:44:02;;;;;;;13.23;8.95;;;47.10;36.50;;;;;;5057452;28;20404;-89
2021/06/25 07:46:28;;;;;;;17.75;7.07;;;46.90;36.70;;;;;;5056284;28;20021;-90
2021/06/25 07:48:53;;;;;;;12.05;6.05;;;47.00;36.80;;;;;;5078599;28;20151;-88
2021/06/25 07:51:19;;;;;;;15.70;6.60;;;47.10;36.90;;;;;;5082766;28;20463;-88
2021/06/25 07:53:45;;;;;;;13.50;6.03;;;47.20;36.70;;;;;;5076081;28;20178;-89
2021/06/25 07:56:10;;;;;;;17.48;6.22;;;47.20;36.20;;;;;;5055636;28;20028;-89
2021/06/25 07:58:36;;;;;;;10.00;5.45;;;47.10;36.70;;;;;;5055826;28;20035;-89
2021/06/25 08:01:02;;;;;;;16.35;6.88;;;47.00;36.60;;;;;;5072833;28;20074;-89
2021/06/25 08:03:28;;;;;;;16.50;6.63;;;47.00;36.40;;;;;;5073480;28;20071;-89
2021/06/25 08:05:54;;;;;;;14.13;6.40;;;46.80;36.70;;;;;;5074047;28;20423;-89
2021/06/25 08:08:20;;;;;;;13.65;6.43;;;46.50;36.70;;;;;;5055170;28;20025;-88
2021/06/25 08:10:46;;;;;;;14.73;6.18;;;46.30;36.50;;;;;;5055319;28;20098;-89
2021/06/25 08:13:12;;;;;;;15.20;6.28;;;45.60;36.80;;;;;;5055208;28;20459;-90
2021/06/25 08:15:37;;;;;;;14.55;6.40;;;44.90;37.40;;;;;;5073591;28;20074;-90
2021/06/25 08:18:03;;;;;;;14.07;6.07;;;44.30;38.40;;;;;;5054748;28;20471;-89
2021/06/25 08:20:29;;;;;;;29.52;10.20;;;43.90;38.40;;;;;;5055329;28;20477;-90
2021/06/25 08:22:56;;;;;;;11.07;6.15;;;43.50;39.60;;;;;;5072751;28;20102;-90
2021/06/25 08:25:22;;;;;;;17.38;6.15;;;43.40;39.20;;;;;;5074490;28;20036;-90
2021/06/25 08:27:48;;;;;;;14.65;5.93;;;43.20;39.50;;;;;;5059603;28;20391;-88
2021/06/25 08:30:14;;;;;;;17.40;6.60;;;43.20;39.50;;;;;;5076349;28;20032;-86
2021/06/25 08:32:40;;;;;;;17.20;6.47;;;43.10;39.70;;;;;;5058537;28;20028;-83
2021/06/25 08:35:07;;;;;;;13.30;6.07;;;43.00;39.90;;;;;;5074955;28;20099;-83
2021/06/25 08:37:33;;;;;;;15.50;6.07;;;43.10;40.00;;;;;;5057634;28;20024;-83
2021/06/25 08:39:59;;;;;;;13.65;5.78;;;43.10;40.10;;;;;;5076995;28;20028;-84
2021/06/25 08:42:24;;;;;;;17.10;6.05;;;43.00;40.00;;;;;;5076792;28;20036;-85
2021/06/25 08:44:50;;;;;;;13.18;6.15;;;42.80;40.00;;;;;;5058492;28;20023;-85
2021/06/25 08:47:16;;;;;;;10.52;5.80;;;42.30;39.90;;;;;;5076183;28;20074;-84
2021/06/25 08:49:47;;;;;;;8.90;5.78;;;42.00;40.50;;;;;;5058044;28;20031;-84
2021/06/25 08:52:14;;;;;;;14.43;5.55;;;41.70;39.90;;;;;;5076113;28;20100;-84
2021/06/25 08:54:40;;;;;;;19.63;5.97;;;41.20;40.20;;;;;;5056966;28;20453;-85
2021/06/25 08:57:07;;;;;;;13.90;6.75;;;41.00;41.30;;;;;;5077677;28;20027;-90
2021/06/25 08:59:34;;;;;;;12.27;6.03;;;41.10;42.00;;;;;;5077307;28;20020;-90
2021/06/25 09:02:02;;;;;;;13.15;6.05;;;41.10;42.00;;;;;;5059766;28;20031;-92
2021/06/25 09:04:41;;;;;;;8.13;5.65;;;41.10;41.80;;;;;;5058372;28;20024;-89
2021/06/25 09:07:08;;;;;;;17.85;6.43;;;40.90;41.80;;;;;;5058625;28;20108;-90
2021/06/25 09:09:38;;;;;;;13.52;6.00;;;40.70;42.60;;;;;;5076590;28;20025;-89
2021/06/25 09:12:09;;;;;;;16.42;5.57;;;40.80;43.00;;;;;;5058354;28;20020;-90
2021/06/25 09:15:21;;;;;;;10.70;6.07;;;41.00;43.00;;;;;;5057854;28;20081;-89
2021/06/25 09:17:58;;;;;;;11.48;5.93;;;41.10;42.80;;;;;;5070876;28;20066;-90
2021/06/25 09:20:42;;;;;;;11.88;5.65;;;41.20;42.50;;;;;;5076103;28;20439;-89
2021/06/25 09:23:10;;;;;;;13.77;5.30;;;41.30;42.60;;;;;;5057708;28;20459;-90
2021/06/25 09:25:54;;;;;;;16.15;6.28;;;41.30;42.40;;;;;;5075689;28;20384;-89
2021/06/25 09:28:22;;;;;;;11.88;6.03;;;41.30;42.50;;;;;;5075660;28;20033;-90
2021/06/25 09:30:48;;;;;;;18.05;5.97;;;41.30;42.50;;;;;;5058503;28;20017;-89
2021/06/25 09:33:14;;;;;;;8.23;5.90;;;41.30;42.50;;;;;;5075423;28;20020;-89
2021/06/25 09:35:40;;;;;;;11.77;6.20;;;41.30;42.40;;;;;;5075462;28;20032;-89
2021/06/25 09:38:06;;;;;;;12.25;5.78;;;41.10;42.50;;;;;;5056452;28;20028;-89
2021/06/25 09:40:38;;;;;;;16.10;6.22;;;41.00;42.40;;;;;;5075068;28;20190;-89
2021/06/25 09:43:13;;;;;;;20.50;6.38;;;40.90;42.60;;;;;;5074497;28;20055;-90
2021/06/25 09:45:50;;;;;;;13.13;7.25;;;40.80;43.00;;;;;;5076988;28;20100;-88
2021/06/25 09:48:16;;;;;;;15.93;5.97;;;40.80;43.10;;;;;;5057953;28;20029;-91
2021/06/25 09:50:44;;;;;;;11.13;5.70;;;40.80;43.20;;;;;;5074881;28;20467;-90
2021/06/25 09:53:10;;;;;;;13.98;6.47;;;40.80;42.90;;;;;;5075071;28;20561;-90
2021/06/25 09:55:56;;;;;;;9.65;5.70;;;40.80;43.00;;;;;;5074106;28;20028;-88
2021/06/25 10:04:10;;;;;;;8.90;5.80;;;40.60;43.00;;;;;;5075098;28;20070;-89
2021/06/25 10:06:35;;;;;;;10.82;6.38;;;40.30;43.00;;;;;;5069768;28;20131;-89
2021/06/25 10:09:01;;;;;;;13.32;6.00;;;40.20;43.30;;;;;;5056781;28;20044;-89
2021/06/25 10:11:30;;;;;;;11.25;5.97;;;40.00;43.80;;;;;;5056828;28;20348;-90
2021/06/25 10:13:58;;;;;;;13.63;6.88;;;40.00;44.00;;;;;;5056735;28;20029;-89
2021/06/25 10:16:25;;;;;;;11.32;6.15;;;39.80;44.20;;;;;;5058075;28;20032;-90
2021/06/25 10:18:56;;;;;;;11.70;6.47;;;39.80;44.30;;;;;;5057070;28;20024;-90
2021/06/25 10:21:25;;;;;;;13.20;5.55;;;39.70;44.50;;;;;;5075010;28;20371;-90
2021/06/25 10:23:54;;;;;;;19.25;8.57;;;39.70;44.20;;;;;;5075314;28;20032;-89
2021/06/25 10:26:21;;;;;;;17.27;7.00;;;39.60;44.00;;;;;;5074752;28;20455;-88
2021/06/25 10:28:50;;;;;;;13.30;5.82;;;39.50;44.10;;;;;;5076678;28;20021;-90
2021/06/25 10:31:21;;;;;;;16.45;5.88;;;39.40;43.90;;;;;;5080316;28;20025;-89
2021/06/25 10:33:47;;;;;;;11.13;5.88;;;39.10;44.30;;;;;;5059709;28;20048;-88
2021/06/25 10:36:14;;;;;;;14.65;6.68;;;38.80;44.50;;;;;;5074847;28;20386;-90
2021/06/25 10:38:46;;;;;;;12.77;7.60;;;38.60;45.00;;;;;;5056679;28;20471;-90
2021/06/25 10:41:14;;;;;;;13.82;5.32;;;38.60;45.20;;;;;;5074331;28;20032;-90
2021/06/25 10:43:54;;;;;;;15.18;5.85;;;38.70;44.70;;;;;;5074088;28;20028;-91
2021/06/25 10:46:29;;;;;;;13.25;6.05;;;38.70;44.30;;;;;;5074305;28;20367;-91
2021/06/25 10:49:04;;;;;;;9.88;5.40;;;38.60;44.60;;;;;;5074791;28;20055;-90
2021/06/25 10:51:38;;;;;;;12.40;5.50;;;38.70;44.80;;;;;;5056763;28;20115;-90
2021/06/25 10:54:09;;;;;;;8.57;5.32;;;38.80;44.40;;;;;;5056802;28;20048;-94
2021/06/25 10:56:43;;;;;;;13.07;5.20;;;38.90;44.30;;;;;;5078454;28;20104;-91
2021/06/25 10:59:28;;;;;;;10.00;5.13;;;38.90;44.20;;;;;;5058265;28;20126;-90
2021/06/25 11:01:55;;;;;;;12.88;5.00;;;38.90;43.40;;;;;;5056705;28;20426;-90
2021/06/25 11:04:41;;;;;;;10.40;5.30;;;38.90;43.50;;;;;;5074280;28;20025;-88
2021/06/25 11:07:15;;;;;;;7.97;4.70;;;38.90;43.40;;;;;;5062097;28;20050;-91
2021/06/25 11:09:58;;;;;;;16.30;5.53;;;38.90;43.30;;;;;;5056811;28;20073;-88
2021/06/25 11:12:33;;;;;;;12.60;5.43;;;38.70;42.90;;;;;;5057976;28;20027;-90
2021/06/25 11:15:05;;;;;;;17.05;5.70;;;38.60;43.20;;;;;;5057728;28;20017;-91
2021/06/25 11:18:13;;;;;;;14.60;5.15;;;38.60;43.40;;;;;;5056229;28;20025;-92
2021/06/25 11:20:56;;;;;;;10.85;4.90;;;38.40;43.20;;;;;;5046446;28;20041;-88
2021/06/25 11:23:27;;;;;;;6.50;4.82;;;38.40;43.10;;;;;;5057644;28;20371;-91
2021/06/25 11:26:01;;;;;;;15.88;5.25;;;38.30;43.10;;;;;;5055655;28;20489;-91
2021/06/25 11:28:37;;;;;;;9.60;5.10;;;38.20;43.70;;;;;;5057114;28;20116;-91
2021/06/25 11:31:05;;;;;;;11.95;5.30;;;38.10;43.40;;;;;;5074830;28;20021;-90
2021/06/25 11:33:37;;;;;;;13.52;5.95;;;37.90;43.60;;;;;;5057574;28;20109;-91
2021/06/25 11:36:27;;;;;;;8.02;5.10;;;37.70;44.30;;;;;;5057835;28;20054;-90
2021/06/25 11:38:53;;;;;;;9.00;5.30;;;37.80;44.70;;;;;;5057093;28;20074;-92
2021/06/25 11:41:29;;;;;;;13.95;5.78;;;38.00;44.70;;;;;;5079360;28;20027;-92
2021/06/25 11:43:57;;;;;;;11.48;5.72;;;38.10;44.70;;;;;;5073393;28;20028;-90
2021/06/25 11:46:23;;;;;;;12.77;5.05;;;38.10;44.90;;;;;;5086304;28;20036;-90
2021/06/25 11:48:50;;;;;;;11.25;5.15;;;38.30;44.80;;;;;;5065697;28;20493;-90
2021/06/25 11:51:18;;;;;;;7.70;4.95;;;38.40;44.40;;;;;;5060235;28;20025;-89
2021/06/25 11:53:45;;;;;;;14.43;5.63;;;38.50;44.30;;;;;;5057776;28;20411;-91
2021/06/25 11:56:22;;;;;;;16.63;5.20;;;38.60;43.90;;;;;;5075681;28;20024;-91
2021/06/25 11:58:57;;;;;;;12.20;5.45;;;38.40;43.60;;;;;;5056508;28;20079;-91
2021/06/25 12:01:24;;;;;;;14.52;5.55;;;38.10;43.80;;;;;;5077605;28;20052;-91
2021/06/25 12:03:50;;;;;;;19.40;6.65;;;38.00;44.40;;;;;;5078417;28;20378;-89
2021/06/25 12:06:15;;;;;;;6.93;5.00;;;38.00;44.50;;;;;;5059326;28;20103;-86
2021/06/25 12:09:02;;;;;;;11.30;4.70;;;38.10;44.70;;;;;;5076007;28;20026;-87
2021/06/25 12:11:30;;;;;;;11.27;5.53;;;38.20;44.00;;;;;;5058084;28;20035;-86
2021/06/25 12:13:59;;;;;;;6.93;4.38;;;38.10;44.10;;;;;;5057871;28;20062;-87
2021/06/25 12:16:25;;;;;;;9.25;5.38;;;38.10;43.90;;;;;;5075660;28;20032;-87
2021/06/25 12:18:51;;;;;;;8.38;4.75;;;38.10;43.80;;;;;;5057912;28;20024;-86
2021/06/25 12:21:19;;;;;;;10.85;5.38;;;38.10;43.70;;;;;;5057937;28;20104;-87
2021/06/25 12:23:50;;;;;;;11.63;5.10;;;38.10;43.70;;;;;;5057660;28;20036;-85
2021/06/25 12:26:19;;;;;;;7.82;4.75;;;38.10;43.50;;;;;;5076107;28;20073;-88
2021/06/25 12:28:46;;;;;;;9.73;4.70;;;38.10;43.20;;;;;;5076296;28;20066;-86
2021/06/25 12:31:17;;;;;;;10.93;5.18;;;37.90;43.40;;;;;;5079762;28;20020;-87
2021/06/25 12:33:43;;;;;;;;;;;37.90;43.60;;;;;;5073095;28;20046;-87
2021/06/25 12:36:13;;;;;;;8.40;5.05;;;37.90;43.60;;;;;;5081728;28;19904;-87
2021/06/25 12:38:39;;;;;;;11.60;4.80;;;37.80;43.60;;;;;;5076001;28;20029;-86
2021/06/25 12:41:09;;;;;;;12.57;6.80;;;37.60;43.90;;;;;;5076394;28;20029;-91
2021/06/25 12:43:43;;;;;;;11.93;5.20;;;37.50;43.90;;;;;;5058620;28;20020;-90
2021/06/25 12:46:15;;;;;;;13.50;5.28;;;37.40;43.80;;;;;;5076627;28;20017;-90
2021/06/25 12:48:52;;;;;;;12.13;4.70;;;37.20;44.40;;;;;;5075720;28;20119;-91
2021/06/25 12:51:29;;;;;;;18.00;5.68;;;37.10;44.30;;;;;;5058737;28;20379;-91
2021/06/25 12:53:58;;;;;;;9.55;4.85;;;37.00;44.40;;;;;;5058292;28;20052;-89
2021/06/25 12:56:26;;;;;;;14.90;5.20;;;36.90;44.50;;;;;;5076657;28;20485;-92
2021/06/25 12:59:04;;;;;;;12.10;5.10;;;36.80;45.00;;;;;;5058996;28;20472;-90
2021/06/25 13:01:43;;;;;;;15.73;5.10;;;36.70;45.50;;;;;;5076812;28;20024;-90